createdAt,value
2023-01-22T00:00:17.967Z,59.98
2023-01-22T00:01:17.647Z,65.87
2023-01-22T00:02:17.686Z,70.13
2023-01-22T00:03:17.636Z,67.85
2023-01-22T00:04:17.616Z,63.22
2023-01-22T00:05:17.576Z,65.66
2023-01-22T00:06:17.553Z,63.17
2023-01-22T00:07:17.539Z,67.21
2023-01-22T00:08:17.511Z,61.49
2023-01-22T00:09:17.536Z,61.54
2023-01-22T00:10:17.747Z,61.04
2023-01-22T00:11:17.458Z,65.45
2023-01-22T00:12:17.440Z,60.92
2023-01-22T00:13:17.418Z,57.99
2023-01-22T00:14:17.449Z,55.34
2023-01-22T00:15:17.379Z,59.67
2023-01-22T00:16:17.421Z,52.57
2023-01-22T00:17:17.347Z,57.51
2023-01-22T00:18:17.325Z,64.90
2023-01-22T00:19:17.345Z,66.49
2023-01-22T00:20:17.569Z,68.11
2023-01-22T00:21:17.277Z,63.62
2023-01-22T00:22:17.259Z,69.40
2023-01-22T00:23:17.257Z,60.39
2023-01-22T00:24:17.248Z,62.64
2023-01-22T00:25:17.198Z,60.97
2023-01-22T00:26:17.191Z,61.40
2023-01-22T00:27:17.160Z,62.60
2023-01-22T00:28:17.140Z,60.50
2023-01-22T00:29:17.123Z,57.74
2023-01-22T00:30:17.446Z,61.14
2023-01-22T00:31:17.168Z,59.43
2023-01-22T00:32:17.256Z,58.80
2023-01-22T00:33:17.044Z,63.13
2023-01-22T00:34:17.025Z,67.03
2023-01-22T00:35:17.026Z,60.56
2023-01-22T00:36:16.981Z,56.36
2023-01-22T00:37:16.960Z,58.54
2023-01-22T00:38:16.945Z,60.08
2023-01-22T00:39:16.926Z,66.41
2023-01-22T00:40:17.226Z,58.80
2023-01-22T00:41:16.884Z,60.36
2023-01-22T00:42:16.865Z,66.50
2023-01-22T00:43:16.844Z,63.71
2023-01-22T00:44:16.831Z,62.03
2023-01-22T00:45:16.833Z,68.62
2023-01-22T00:46:16.825Z,62.95
2023-01-22T00:47:16.770Z,64.19
2023-01-22T00:48:16.772Z,66.04
2023-01-22T00:49:16.729Z,61.51
2023-01-22T00:50:17.041Z,59.64
2023-01-22T00:51:16.691Z,57.21
2023-01-22T00:52:16.668Z,66.39
2023-01-22T00:53:16.654Z,58.56
2023-01-22T00:54:16.646Z,60.13
2023-01-22T00:55:16.642Z,68.28
2023-01-22T00:56:16.598Z,61.58
2023-01-22T00:57:16.583Z,57.98
2023-01-22T00:58:16.556Z,60.28
2023-01-22T00:59:16.540Z,62.06
2023-01-22T01:00:16.906Z,60.81
2023-01-22T01:01:16.512Z,65.82
2023-01-22T01:02:16.510Z,62.71
2023-01-22T01:03:16.465Z,59.70
2023-01-22T01:04:16.466Z,61.36
2023-01-22T01:05:16.456Z,65.55
2023-01-22T01:06:16.403Z,61.12
2023-01-22T01:07:16.396Z,62.41
2023-01-22T01:08:16.367Z,58.05
2023-01-22T01:09:16.351Z,52.13
2023-01-22T01:10:16.751Z,61.58
2023-01-22T01:11:16.310Z,65.21
2023-01-22T01:12:16.293Z,66.27
2023-01-22T01:13:16.344Z,64.60
2023-01-22T01:14:16.255Z,65.00
2023-01-22T01:15:16.259Z,66.87
2023-01-22T01:16:16.355Z,57.01
2023-01-22T01:17:16.199Z,63.69
2023-01-22T01:18:16.181Z,62.54
2023-01-22T01:19:16.526Z,63.71
2023-01-22T01:20:16.544Z,59.44
2023-01-22T01:21:16.124Z,65.94
2023-01-22T01:22:16.101Z,67.81
2023-01-22T01:23:16.091Z,65.58
2023-01-22T01:24:16.067Z,61.74
2023-01-22T01:25:16.090Z,56.10
2023-01-22T01:26:16.038Z,59.81
2023-01-22T01:27:16.011Z,65.50
2023-01-22T01:28:15.996Z,62.71
2023-01-22T01:29:16.044Z,56.87
2023-01-22T01:30:16.299Z,61.89
2023-01-22T01:31:16.103Z,64.03
2023-01-22T01:32:15.915Z,64.72
2023-01-22T01:33:15.921Z,60.53
2023-01-22T01:34:15.891Z,64.12
2023-01-22T01:35:15.884Z,67.24
2023-01-22T01:36:15.850Z,68.61
2023-01-22T01:37:15.830Z,61.57
2023-01-22T01:38:15.805Z,60.38
2023-01-22T01:39:15.789Z,57.04
2023-01-22T01:40:16.024Z,59.82
2023-01-22T01:41:15.756Z,68.49
2023-01-22T01:42:15.728Z,60.62
2023-01-22T01:43:15.708Z,58.16
2023-01-22T01:44:15.694Z,60.05
2023-01-22T01:45:15.771Z,68.52
2023-01-22T01:46:15.670Z,64.39
2023-01-22T01:47:15.637Z,66.11
2023-01-22T01:48:15.621Z,64.99
2023-01-22T01:49:15.628Z,63.82
2023-01-22T01:50:15.802Z,66.11
2023-01-22T01:51:15.614Z,60.81
2023-01-22T01:52:15.545Z,50.85
2023-01-22T01:53:15.525Z,64.26
2023-01-22T01:54:15.522Z,59.87
2023-01-22T01:55:15.520Z,58.95
2023-01-22T01:56:15.474Z,60.02
2023-01-22T01:57:15.458Z,62.35
2023-01-22T01:58:15.434Z,58.38
2023-01-22T01:59:15.412Z,56.79
2023-01-22T02:00:15.597Z,60.48
2023-01-22T02:01:15.460Z,57.13
2023-01-22T02:02:15.435Z,66.63
2023-01-22T02:03:15.334Z,61.36
2023-01-22T02:04:15.316Z,56.64
2023-01-22T02:05:15.326Z,61.88
2023-01-22T02:06:15.281Z,63.27
2023-01-22T02:07:15.259Z,65.86
2023-01-22T02:08:15.241Z,65.84
2023-01-22T02:09:15.228Z,66.93
2023-01-22T02:10:15.423Z,65.89
2023-01-22T02:11:15.187Z,59.28
2023-01-22T02:12:15.166Z,63.52
2023-01-22T02:13:15.155Z,61.56
2023-01-22T02:14:15.125Z,60.75
2023-01-22T02:15:15.145Z,64.99
2023-01-22T02:16:15.135Z,62.44
2023-01-22T02:17:15.151Z,64.70
2023-01-22T02:18:15.047Z,60.18
2023-01-22T02:19:15.036Z,64.68
2023-01-22T02:20:15.035Z,63.23
2023-01-22T02:21:14.993Z,61.11
2023-01-22T02:22:14.977Z,62.40
2023-01-22T02:23:14.957Z,65.08
2023-01-22T02:24:14.957Z,69.47
2023-01-22T02:25:14.946Z,60.57
2023-01-22T02:26:14.905Z,60.53
2023-01-22T02:27:14.881Z,58.75
2023-01-22T02:28:14.859Z,59.78
2023-01-22T02:29:14.850Z,59.75
2023-01-22T02:30:14.847Z,63.57
2023-01-22T02:31:14.872Z,64.44
2023-01-22T02:32:14.789Z,65.62
2023-01-22T02:33:14.849Z,59.18
2023-01-22T02:34:14.754Z,58.45
2023-01-22T02:35:14.760Z,62.86
2023-01-22T02:36:14.712Z,63.80
2023-01-22T02:37:14.691Z,62.09
2023-01-22T02:38:14.675Z,67.09
2023-01-22T02:39:14.654Z,61.41
2023-01-22T02:40:14.660Z,57.56
2023-01-22T02:41:14.615Z,63.31
2023-01-22T02:42:14.597Z,64.23
2023-01-22T02:43:14.581Z,64.56
2023-01-22T02:44:14.559Z,56.93
2023-01-22T02:45:14.566Z,52.43
2023-01-22T02:46:14.527Z,65.57
2023-01-22T02:47:14.530Z,66.77
2023-01-22T02:48:14.483Z,62.79
2023-01-22T02:49:14.538Z,60.25
2023-01-22T02:50:14.478Z,56.33
2023-01-22T02:51:14.473Z,64.47
2023-01-22T02:52:14.411Z,64.04
2023-01-22T02:53:14.390Z,65.50
2023-01-22T02:54:14.371Z,59.27
2023-01-22T02:55:14.385Z,67.00
2023-01-22T02:56:14.337Z,56.62
2023-01-22T02:57:14.324Z,72.94
2023-01-22T02:58:14.308Z,60.53
2023-01-22T02:59:14.287Z,63.97
2023-01-22T03:00:14.284Z,60.47
2023-01-22T03:01:14.295Z,64.09
2023-01-22T03:02:14.241Z,65.11
2023-01-22T03:03:14.209Z,65.12
2023-01-22T03:04:14.200Z,59.89
2023-01-22T03:05:14.276Z,62.99
2023-01-22T03:06:14.153Z,67.24
2023-01-22T03:07:14.140Z,63.70
2023-01-22T03:08:14.115Z,61.54
2023-01-22T03:09:14.099Z,61.23
2023-01-22T03:10:14.114Z,64.58
2023-01-22T03:11:14.067Z,64.56
2023-01-22T03:12:14.047Z,64.21
2023-01-22T03:13:14.023Z,59.04
2023-01-22T03:14:14.012Z,51.35
2023-01-22T03:15:14.015Z,58.87
2023-01-22T03:16:13.980Z,59.46
2023-01-22T03:17:14.949Z,58.59
2023-01-22T03:18:13.934Z,57.64
2023-01-22T03:19:13.915Z,63.60
2023-01-22T03:20:13.920Z,56.90
2023-01-22T03:21:13.977Z,64.51
2023-01-22T03:22:13.860Z,62.27
2023-01-22T03:23:13.840Z,61.37
2023-01-22T03:24:13.816Z,63.89
2023-01-22T03:25:14.829Z,61.55
2023-01-22T03:26:13.796Z,61.20
2023-01-22T03:27:13.771Z,67.82
2023-01-22T03:28:13.764Z,63.60
2023-01-22T03:29:13.758Z,55.52
2023-01-22T03:30:13.739Z,62.71
2023-01-22T03:31:13.884Z,64.87
2023-01-22T03:32:13.723Z,66.15
2023-01-22T03:33:13.662Z,65.27
2023-01-22T03:34:13.639Z,55.42
2023-01-22T03:35:13.654Z,63.94
2023-01-22T03:36:13.594Z,63.88
2023-01-22T03:37:13.655Z,56.86
2023-01-22T03:38:13.574Z,62.93
2023-01-22T03:39:13.544Z,55.03
2023-01-22T03:40:13.526Z,62.01
2023-01-22T03:41:14.540Z,53.91
2023-01-22T03:42:13.503Z,63.93
2023-01-22T03:43:13.472Z,58.32
2023-01-22T03:44:13.450Z,62.35
2023-01-22T03:45:13.435Z,57.13
2023-01-22T03:46:13.464Z,62.40
2023-01-22T03:47:13.400Z,56.92
2023-01-22T03:48:13.431Z,61.30
2023-01-22T03:49:13.363Z,65.25
2023-01-22T03:50:13.343Z,60.11
2023-01-22T03:51:13.378Z,61.95
2023-01-22T03:52:13.304Z,63.82
2023-01-22T03:53:13.370Z,57.70
2023-01-22T03:54:13.269Z,64.31
2023-01-22T03:55:13.252Z,62.19
2023-01-22T03:56:13.255Z,66.50
2023-01-22T03:57:13.209Z,66.49
2023-01-22T03:58:13.192Z,63.32
2023-01-22T03:59:13.181Z,59.53
2023-01-22T04:00:13.156Z,66.56
2023-01-22T04:01:13.217Z,64.16
2023-01-22T04:02:13.160Z,66.58
2023-01-22T04:03:13.101Z,69.22
2023-01-22T04:04:13.081Z,60.87
2023-01-22T04:05:13.065Z,59.83
2023-01-22T04:06:13.070Z,66.35
2023-01-22T04:07:13.033Z,67.08
2023-01-22T04:08:13.006Z,66.40
2023-01-22T04:09:13.066Z,69.24
2023-01-22T04:10:12.972Z,60.24
2023-01-22T04:11:12.979Z,59.92
2023-01-22T04:12:12.934Z,65.11
2023-01-22T04:13:12.919Z,61.39
2023-01-22T04:14:12.900Z,64.16
2023-01-22T04:15:12.885Z,63.88
2023-01-22T04:16:12.917Z,60.65
2023-01-22T04:17:12.840Z,64.56
2023-01-22T04:18:12.835Z,70.03
2023-01-22T04:19:12.810Z,65.94
2023-01-22T04:20:12.783Z,53.54
2023-01-22T04:21:12.793Z,61.46
2023-01-22T04:22:12.744Z,59.16
2023-01-22T04:23:12.736Z,64.56
2023-01-22T04:24:12.718Z,65.49
2023-01-22T04:25:12.781Z,58.24
2023-01-22T04:26:12.700Z,60.92
2023-01-22T04:27:12.662Z,60.22
2023-01-22T04:28:12.639Z,65.53
2023-01-22T04:29:12.623Z,67.21
2023-01-22T04:30:12.619Z,64.08
2023-01-22T04:31:12.728Z,63.09
2023-01-22T04:32:12.568Z,58.02
2023-01-22T04:33:12.543Z,59.94
2023-01-22T04:34:12.538Z,59.44
2023-01-22T04:35:12.507Z,62.70
2023-01-22T04:36:12.518Z,69.27
2023-01-22T04:37:12.469Z,63.69
2023-01-22T04:38:12.461Z,65.14
2023-01-22T04:39:12.433Z,68.82
2023-01-22T04:40:12.425Z,62.53
2023-01-22T04:41:12.495Z,62.10
2023-01-22T04:42:12.378Z,65.10
2023-01-22T04:43:12.358Z,66.27
2023-01-22T04:44:12.337Z,68.28
2023-01-22T04:45:12.323Z,66.26
2023-01-22T04:46:12.363Z,66.91
2023-01-22T04:47:12.312Z,59.28
2023-01-22T04:48:12.270Z,65.46
2023-01-22T04:49:12.248Z,58.44
2023-01-22T04:50:12.233Z,63.83
2023-01-22T04:51:12.289Z,65.48
2023-01-22T04:52:12.239Z,60.69
2023-01-22T04:53:12.176Z,63.09
2023-01-22T04:54:12.162Z,64.39
2023-01-22T04:55:12.136Z,65.31
2023-01-22T04:56:12.157Z,61.73
2023-01-22T04:57:12.199Z,60.92
2023-01-22T04:58:12.086Z,66.59
2023-01-22T04:59:12.069Z,68.77
2023-01-22T05:00:12.053Z,66.76
2023-01-22T05:01:12.058Z,57.85
2023-01-22T05:02:12.051Z,63.95
2023-01-22T05:03:12.023Z,66.05
2023-01-22T05:04:11.972Z,63.45
2023-01-22T05:05:11.965Z,62.07
2023-01-22T05:06:11.962Z,63.01
2023-01-22T05:07:11.924Z,66.33
2023-01-22T05:08:11.906Z,61.84
2023-01-22T05:09:11.879Z,65.44
2023-01-22T05:10:11.861Z,62.22
2023-01-22T05:11:11.881Z,63.58
2023-01-22T05:12:11.863Z,62.35
2023-01-22T05:13:11.884Z,62.11
2023-01-22T05:14:11.809Z,66.02
2023-01-22T05:15:23.156Z,67.10
2023-01-22T05:16:14.050Z,63.80
2023-01-22T05:17:12.295Z,66.11
2023-01-22T05:18:11.720Z,67.63
2023-01-22T05:19:11.705Z,66.99
2023-01-22T05:20:11.681Z,63.64
2023-01-22T05:21:11.688Z,58.07
2023-01-22T05:22:11.641Z,69.77
2023-01-22T05:23:11.624Z,61.49
2023-01-22T05:24:11.605Z,61.06
2023-01-22T05:25:11.577Z,58.19
2023-01-22T05:26:12.593Z,64.84
2023-01-22T05:27:11.552Z,67.84
2023-01-22T05:28:11.529Z,67.12
2023-01-22T05:29:11.590Z,65.50
2023-01-22T05:30:11.501Z,68.61
2023-01-22T05:31:11.597Z,66.28
2023-01-22T05:32:11.482Z,67.66
2023-01-22T05:33:11.621Z,64.62
2023-01-22T05:34:12.421Z,65.00
2023-01-22T05:35:11.410Z,69.22
2023-01-22T05:36:11.415Z,68.83
2023-01-22T05:37:11.396Z,63.81
2023-01-22T05:38:11.381Z,66.50
2023-01-22T05:39:11.330Z,67.26
2023-01-22T05:40:11.324Z,68.78
2023-01-22T05:41:11.329Z,68.72
2023-01-22T05:42:11.274Z,63.09
2023-01-22T05:43:11.265Z,66.90
2023-01-22T05:44:11.240Z,71.92
2023-01-22T05:45:11.304Z,70.63
2023-01-22T05:46:11.222Z,67.05
2023-01-22T05:47:11.205Z,65.28
2023-01-22T05:48:11.159Z,68.26
2023-01-22T05:49:11.145Z,67.80
2023-01-22T05:50:11.122Z,64.46
2023-01-22T05:51:11.227Z,65.11
2023-01-22T05:52:11.118Z,66.66
2023-01-22T05:53:11.057Z,60.59
2023-01-22T05:54:12.049Z,65.01
2023-01-22T05:55:11.030Z,67.13
2023-01-22T05:56:11.011Z,69.45
2023-01-22T05:57:11.022Z,70.67
2023-01-22T05:58:10.992Z,63.96
2023-01-22T05:59:10.956Z,68.79
2023-01-22T06:00:10.941Z,66.50
2023-01-22T06:01:11.004Z,64.08
2023-01-22T06:02:11.988Z,65.70
2023-01-22T06:03:10.881Z,66.46
2023-01-22T06:04:10.867Z,64.86
2023-01-22T06:05:10.861Z,63.50
2023-01-22T06:06:10.833Z,65.12
2023-01-22T06:07:10.835Z,64.33
2023-01-22T06:08:10.797Z,69.19
2023-01-22T06:09:10.770Z,66.97
2023-01-22T06:10:11.787Z,68.50
2023-01-22T06:11:10.734Z,63.89
2023-01-22T06:12:10.742Z,67.68
2023-01-22T06:13:10.694Z,64.73
2023-01-22T06:14:10.675Z,67.89
2023-01-22T06:15:10.659Z,69.44
2023-01-22T06:16:10.784Z,70.61
2023-01-22T06:17:10.714Z,67.63
2023-01-22T06:18:10.602Z,64.40
2023-01-22T06:19:10.579Z,67.59
2023-01-22T06:20:10.562Z,68.88
2023-01-22T06:21:10.541Z,71.08
2023-01-22T06:22:10.554Z,71.21
2023-01-22T06:23:10.499Z,67.73
2023-01-22T06:24:10.483Z,68.47
2023-01-22T06:25:10.471Z,69.65
2023-01-22T06:26:10.447Z,69.98
2023-01-22T06:27:10.453Z,64.18
2023-01-22T06:28:10.410Z,66.31
2023-01-22T06:29:10.390Z,64.25
2023-01-22T06:30:10.389Z,67.52
2023-01-22T06:31:10.447Z,69.10
2023-01-22T06:32:10.361Z,66.34
2023-01-22T06:33:10.390Z,66.65
2023-01-22T06:34:10.296Z,66.81
2023-01-22T06:35:10.280Z,61.51
2023-01-22T06:36:10.261Z,65.00
2023-01-22T06:37:10.277Z,68.26
2023-01-22T06:38:10.226Z,68.54
2023-01-22T06:39:10.205Z,67.44
2023-01-22T06:40:10.186Z,68.94
2023-01-22T06:41:10.176Z,60.37
2023-01-22T06:42:10.177Z,66.06
2023-01-22T06:43:10.829Z,70.79
2023-01-22T06:44:11.139Z,67.38
2023-01-22T06:45:10.091Z,65.90
2023-01-22T06:46:10.166Z,68.25
2023-01-22T06:47:10.082Z,71.05
2023-01-22T06:48:10.036Z,68.14
2023-01-22T06:49:10.097Z,70.30
2023-01-22T06:50:10.003Z,68.59
2023-01-22T06:51:10.043Z,69.66
2023-01-22T06:52:09.982Z,69.02
2023-01-22T06:53:09.942Z,69.15
2023-01-22T06:54:09.925Z,63.28
2023-01-22T06:55:09.901Z,64.87
2023-01-22T06:56:09.881Z,69.53
2023-01-22T06:57:09.892Z,68.81
2023-01-22T06:58:09.842Z,64.81
2023-01-22T06:59:09.844Z,65.41
2023-01-22T07:00:09.802Z,70.13
2023-01-22T07:01:09.781Z,66.32
2023-01-22T07:02:09.787Z,66.83
2023-01-22T07:03:09.740Z,70.05
2023-01-22T07:04:09.725Z,66.55
2023-01-22T07:05:09.787Z,73.41
2023-01-22T07:06:09.685Z,73.43
2023-01-22T07:07:09.694Z,70.96
2023-01-22T07:08:09.647Z,68.92
2023-01-22T07:09:09.631Z,71.90
2023-01-22T07:10:09.616Z,66.74
2023-01-22T07:11:09.598Z,71.14
2023-01-22T07:12:09.599Z,69.64
2023-01-22T07:13:09.556Z,70.41
2023-01-22T07:14:09.551Z,71.00
2023-01-22T07:15:09.521Z,68.33
2023-01-22T07:16:09.547Z,70.04
2023-01-22T07:17:09.500Z,66.83
2023-01-22T07:18:10.458Z,72.02
2023-01-22T07:19:09.453Z,70.82
2023-01-22T07:20:09.436Z,70.34
2023-01-22T07:21:09.480Z,67.72
2023-01-22T07:22:09.413Z,72.57
2023-01-22T07:23:09.373Z,70.16
2023-01-22T07:24:09.340Z,68.96
2023-01-22T07:25:10.328Z,69.15
2023-01-22T07:26:09.310Z,67.72
2023-01-22T07:27:09.333Z,70.73
2023-01-22T07:28:09.273Z,69.35
2023-01-22T07:29:09.254Z,69.41
2023-01-22T07:30:09.242Z,70.23
2023-01-22T07:31:09.290Z,68.42
2023-01-22T07:32:09.221Z,70.84
2023-01-22T07:33:09.187Z,71.27
2023-01-22T07:34:09.170Z,70.86
2023-01-22T07:35:09.149Z,67.96
2023-01-22T07:36:09.129Z,72.57
2023-01-22T07:37:09.132Z,72.14
2023-01-22T07:38:09.162Z,72.32
2023-01-22T07:39:09.077Z,71.23
2023-01-22T07:40:09.059Z,71.46
2023-01-22T07:41:20.239Z,68.37
2023-01-22T07:42:11.043Z,70.52
2023-01-22T07:43:08.995Z,72.99
2023-01-22T07:44:08.976Z,71.20
2023-01-22T07:45:08.955Z,68.16
2023-01-22T07:46:09.069Z,71.33
2023-01-22T07:47:08.945Z,71.21
2023-01-22T07:48:08.910Z,68.48
2023-01-22T07:49:08.883Z,63.11
2023-01-22T07:50:08.866Z,69.76
2023-01-22T07:51:08.864Z,71.65
2023-01-22T07:52:08.831Z,72.68
2023-01-22T07:53:08.841Z,70.40
2023-01-22T07:54:08.873Z,71.24
2023-01-22T07:55:08.777Z,71.79
2023-01-22T07:56:08.763Z,72.17
2023-01-22T07:57:08.746Z,69.19
2023-01-22T07:58:08.745Z,71.70
2023-01-22T07:59:08.709Z,70.59
2023-01-22T08:00:08.685Z,70.94
2023-01-22T08:01:08.720Z,71.41
2023-01-22T08:02:08.684Z,72.01
2023-01-22T08:03:08.652Z,67.39
2023-01-22T08:04:08.606Z,72.62
2023-01-22T08:05:08.597Z,75.54
2023-01-22T08:06:08.572Z,70.70
2023-01-22T08:07:08.550Z,72.48
2023-01-22T08:08:08.558Z,70.27
2023-01-22T08:09:08.515Z,70.53
2023-01-22T08:10:08.576Z,69.26
2023-01-22T08:11:08.477Z,73.33
2023-01-22T08:12:08.457Z,71.78
2023-01-22T08:13:08.461Z,70.84
2023-01-22T08:14:08.417Z,71.46
2023-01-22T08:15:08.407Z,71.48
2023-01-22T08:16:08.399Z,71.69
2023-01-22T08:17:08.361Z,74.29
2023-01-22T08:18:08.373Z,72.36
2023-01-22T08:19:08.321Z,70.48
2023-01-22T08:20:08.301Z,73.19
2023-01-22T08:21:09.285Z,70.00
2023-01-22T08:22:08.270Z,71.32
2023-01-22T08:23:08.272Z,70.94
2023-01-22T08:24:08.282Z,71.37
2023-01-22T08:25:08.206Z,70.87
2023-01-22T08:26:08.268Z,72.00
2023-01-22T08:27:08.168Z,71.72
2023-01-22T08:28:08.176Z,70.57
2023-01-22T08:29:08.131Z,69.77
2023-01-22T08:30:08.123Z,70.15
2023-01-22T08:31:16.356Z,70.50
2023-01-22T08:32:10.165Z,73.48
2023-01-22T08:33:08.075Z,73.11
2023-01-22T08:34:08.034Z,72.95
2023-01-22T08:35:08.013Z,73.01
2023-01-22T08:36:07.993Z,71.85
2023-01-22T08:37:07.984Z,71.98
2023-01-22T08:38:07.985Z,70.87
2023-01-22T08:39:07.934Z,72.82
2023-01-22T08:40:07.917Z,73.55
2023-01-22T08:41:07.899Z,74.18
2023-01-22T08:42:07.953Z,70.13
2023-01-22T08:43:07.887Z,71.52
2023-01-22T08:44:07.843Z,73.46
2023-01-22T08:45:07.821Z,71.95
2023-01-22T08:46:07.880Z,72.94
2023-01-22T08:47:07.788Z,69.67
2023-01-22T08:48:07.799Z,73.61
2023-01-22T08:49:07.761Z,71.81
2023-01-22T08:50:07.729Z,72.81
2023-01-22T08:51:07.734Z,74.03
2023-01-22T08:52:07.691Z,74.63
2023-01-22T08:53:07.699Z,72.68
2023-01-22T08:54:07.661Z,69.01
2023-01-22T08:55:07.641Z,73.76
2023-01-22T08:56:07.626Z,75.12
2023-01-22T08:57:07.614Z,74.43
2023-01-22T08:58:07.686Z,72.12
2023-01-22T08:59:07.571Z,74.42
2023-01-22T09:00:07.544Z,74.84
2023-01-22T09:01:07.626Z,71.88
2023-01-22T09:02:07.553Z,73.15
2023-01-22T09:03:07.516Z,74.53
2023-01-22T09:04:07.474Z,74.28
2023-01-22T09:05:07.459Z,73.02
2023-01-22T09:06:07.440Z,71.78
2023-01-22T09:07:07.420Z,73.88
2023-01-22T09:08:07.438Z,73.01
2023-01-22T09:09:07.391Z,72.60
2023-01-22T09:10:07.369Z,72.54
2023-01-22T09:11:07.361Z,73.08
2023-01-22T09:12:07.333Z,72.35
2023-01-22T09:13:07.343Z,73.46
2023-01-22T09:14:07.367Z,73.19
2023-01-22T09:15:07.313Z,73.70
2023-01-22T09:16:07.288Z,72.44
2023-01-22T09:17:07.236Z,73.47
2023-01-22T09:18:07.218Z,74.48
2023-01-22T09:19:07.197Z,72.81
2023-01-22T09:20:07.179Z,73.23
2023-01-22T09:21:07.188Z,73.04
2023-01-22T09:22:07.146Z,74.34
2023-01-22T09:23:07.150Z,75.40
2023-01-22T09:24:07.110Z,74.12
2023-01-22T09:25:07.113Z,72.85
2023-01-22T09:26:07.075Z,74.19
2023-01-22T09:27:07.055Z,73.49
2023-01-22T09:28:07.058Z,72.52
2023-01-22T09:29:07.025Z,73.70
2023-01-22T09:30:07.073Z,73.58
2023-01-22T09:31:07.030Z,72.65
2023-01-22T09:32:06.956Z,72.89
2023-01-22T09:33:06.969Z,72.05
2023-01-22T09:34:06.928Z,72.00
2023-01-22T09:35:06.908Z,74.02
2023-01-22T09:36:06.884Z,74.06
2023-01-22T09:37:06.864Z,74.08
2023-01-22T09:38:06.873Z,74.29
2023-01-22T09:39:06.824Z,75.24
2023-01-22T09:40:06.805Z,71.80
2023-01-22T09:41:06.789Z,73.78
2023-01-22T09:42:06.771Z,73.99
2023-01-22T09:43:06.781Z,74.02
2023-01-22T09:44:06.733Z,75.05
2023-01-22T09:45:06.724Z,73.59
2023-01-22T09:46:06.861Z,72.34
2023-01-22T09:47:06.678Z,74.59
2023-01-22T09:48:06.683Z,75.40
2023-01-22T09:49:06.638Z,75.54
2023-01-22T09:50:06.629Z,74.98
2023-01-22T09:51:06.633Z,75.72
2023-01-22T09:52:06.586Z,74.03
2023-01-22T09:53:06.609Z,73.57
2023-01-22T09:54:06.600Z,74.23
2023-01-22T09:55:06.532Z,75.88
2023-01-22T09:56:06.505Z,75.20
2023-01-22T09:57:06.494Z,76.40
2023-01-22T09:58:06.497Z,74.43
2023-01-22T09:59:06.453Z,71.92
2023-01-22T10:00:06.439Z,73.61
2023-01-22T10:01:06.461Z,74.94
2023-01-22T10:02:06.485Z,75.79
2023-01-22T10:03:06.408Z,75.52
2023-01-22T10:04:06.375Z,75.78
2023-01-22T10:05:06.340Z,73.70
2023-01-22T10:06:06.329Z,76.37
2023-01-22T10:07:06.307Z,74.51
2023-01-22T10:08:06.320Z,75.83
2023-01-22T10:09:06.267Z,75.58
2023-01-22T10:10:06.252Z,76.40
2023-01-22T10:11:06.235Z,73.95
2023-01-22T10:12:06.215Z,76.57
2023-01-22T10:13:06.225Z,76.62
2023-01-22T10:14:06.176Z,75.74
2023-01-22T10:15:06.156Z,76.55
2023-01-22T10:16:06.169Z,76.27
2023-01-22T10:17:06.124Z,75.96
2023-01-22T10:18:06.200Z,75.36
2023-01-22T10:19:06.108Z,75.69
2023-01-22T10:20:06.068Z,76.02
2023-01-22T10:21:06.044Z,75.76
2023-01-22T10:22:06.026Z,74.94
2023-01-22T10:23:06.036Z,76.34
2023-01-22T10:24:05.991Z,75.72
2023-01-22T10:25:05.969Z,76.43
2023-01-22T10:26:05.951Z,75.75
2023-01-22T10:27:05.939Z,76.51
2023-01-22T10:28:05.946Z,76.75
2023-01-22T10:29:05.902Z,75.99
2023-01-22T10:30:05.877Z,76.51
2023-01-22T10:31:05.964Z,76.96
2023-01-22T10:32:05.844Z,74.72
2023-01-22T10:33:05.855Z,76.63
2023-01-22T10:34:05.888Z,77.54
2023-01-22T10:35:05.805Z,76.74
2023-01-22T10:36:05.768Z,76.26
2023-01-22T10:37:05.746Z,74.35
2023-01-22T10:38:05.759Z,74.81
2023-01-22T10:39:05.707Z,75.70
2023-01-22T10:40:05.691Z,77.01
2023-01-22T10:41:05.682Z,76.25
2023-01-22T10:42:05.682Z,76.79
2023-01-22T10:43:05.662Z,75.80
2023-01-22T10:44:05.619Z,75.05
2023-01-22T10:45:05.599Z,77.00
2023-01-22T10:46:05.597Z,74.94
2023-01-22T10:47:05.565Z,76.22
2023-01-22T10:48:05.590Z,74.21
2023-01-22T10:49:05.553Z,75.99
2023-01-22T10:50:05.591Z,77.00
2023-01-22T10:51:05.596Z,74.95
2023-01-22T10:52:05.489Z,75.17
2023-01-22T10:53:05.489Z,74.31
2023-01-22T10:54:05.443Z,75.23
2023-01-22T10:55:05.417Z,74.35
2023-01-22T10:56:05.404Z,75.58
2023-01-22T10:57:05.412Z,76.49
2023-01-22T10:58:05.365Z,76.58
2023-01-22T10:59:05.383Z,76.42
2023-01-22T11:00:05.335Z,76.48
2023-01-22T11:01:05.339Z,76.10
2023-01-22T11:02:05.311Z,76.22
2023-01-22T11:03:05.273Z,74.87
2023-01-22T11:04:05.298Z,75.65
2023-01-22T11:05:05.242Z,74.78
2023-01-22T11:06:05.316Z,75.39
2023-01-22T11:07:05.216Z,74.84
2023-01-22T11:08:05.190Z,77.55
2023-01-22T11:09:05.194Z,75.25
2023-01-22T11:10:05.164Z,76.21
2023-01-22T11:11:05.136Z,77.40
2023-01-22T11:12:05.117Z,75.49
2023-01-22T11:13:05.098Z,77.23
2023-01-22T11:14:05.269Z,75.86
2023-01-22T11:15:05.062Z,76.83
2023-01-22T11:16:05.077Z,75.23
2023-01-22T11:17:05.039Z,77.04
2023-01-22T11:18:05.011Z,75.75
2023-01-22T11:19:05.979Z,77.40
2023-01-22T11:20:04.975Z,76.18
2023-01-22T11:21:04.954Z,76.43
2023-01-22T11:22:05.009Z,75.57
2023-01-22T11:23:04.918Z,77.46
2023-01-22T11:24:04.928Z,77.74
2023-01-22T11:25:06.780Z,77.33
2023-01-22T11:26:04.876Z,77.07
2023-01-22T11:27:04.857Z,77.15
2023-01-22T11:28:04.829Z,76.47
2023-01-22T11:29:04.885Z,76.28
2023-01-22T11:30:04.793Z,76.48
2023-01-22T11:31:04.854Z,78.15
2023-01-22T11:32:04.760Z,75.47
2023-01-22T11:33:04.745Z,75.58
2023-01-22T11:34:04.748Z,76.50
2023-01-22T11:35:04.705Z,77.68
2023-01-22T11:36:04.688Z,76.43
2023-01-22T11:37:04.696Z,75.36
2023-01-22T11:38:04.729Z,76.01
2023-01-22T11:39:04.674Z,76.93
2023-01-22T11:40:04.620Z,77.29
2023-01-22T11:41:04.598Z,78.01
2023-01-22T11:42:04.579Z,74.73
2023-01-22T11:43:04.566Z,75.57
2023-01-22T11:44:04.572Z,77.96
2023-01-22T11:45:04.525Z,77.49
2023-01-22T11:46:04.594Z,75.84
2023-01-22T11:47:04.489Z,76.35
2023-01-22T11:48:04.473Z,77.33
2023-01-22T11:49:04.478Z,77.57
2023-01-22T11:50:04.434Z,77.59
2023-01-22T11:51:04.460Z,77.29
2023-01-22T11:52:04.385Z,75.58
2023-01-22T11:53:05.375Z,77.94
2023-01-22T11:54:04.463Z,78.56
2023-01-22T11:55:04.342Z,76.25
2023-01-22T11:56:04.329Z,76.44
2023-01-22T11:57:04.333Z,76.92
2023-01-22T11:58:04.296Z,78.83
2023-01-22T11:59:04.290Z,78.63
2023-01-22T12:00:04.254Z,78.46
2023-01-22T12:01:04.226Z,77.57
2023-01-22T12:02:04.210Z,77.30
2023-01-22T12:03:04.199Z,75.56
2023-01-22T12:04:04.317Z,77.62
2023-01-22T12:05:04.172Z,76.84
2023-01-22T12:06:04.144Z,78.15
2023-01-22T12:07:04.119Z,75.67
2023-01-22T12:08:04.099Z,76.20
2023-01-22T12:09:04.105Z,77.29
2023-01-22T12:10:04.180Z,77.62
2023-01-22T12:11:04.057Z,77.96
2023-01-22T12:12:04.028Z,76.53
2023-01-22T12:13:04.009Z,77.95
2023-01-22T12:14:04.020Z,78.83
2023-01-22T12:15:03.981Z,77.38
2023-01-22T12:16:05.512Z,77.86
2023-01-22T12:17:04.939Z,78.96
2023-01-22T12:18:03.908Z,77.56
2023-01-22T12:19:04.937Z,78.09
2023-01-22T12:20:03.896Z,78.73
2023-01-22T12:21:03.872Z,77.04
2023-01-22T12:22:03.848Z,77.19
2023-01-22T12:23:03.851Z,76.51
2023-01-22T12:24:03.806Z,76.05
2023-01-22T12:25:03.798Z,77.18
2023-01-22T12:26:03.844Z,77.78
2023-01-22T12:27:03.750Z,78.19
2023-01-22T12:28:04.760Z,78.09
2023-01-22T12:29:03.736Z,76.63
2023-01-22T12:30:03.715Z,77.59
2023-01-22T12:31:03.777Z,76.65
2023-01-22T12:32:03.657Z,78.65
2023-01-22T12:33:05.312Z,77.68
2023-01-22T12:34:04.644Z,77.45
2023-01-22T12:35:03.599Z,76.55
2023-01-22T12:36:03.587Z,77.86
2023-01-22T12:37:03.581Z,77.62
2023-01-22T12:38:03.545Z,78.54
2023-01-22T12:39:03.567Z,78.17
2023-01-22T12:40:03.507Z,78.12
2023-01-22T12:41:03.489Z,78.07
2023-01-22T12:42:03.556Z,78.69
2023-01-22T12:43:03.460Z,77.98
2023-01-22T12:44:03.458Z,77.09
2023-01-22T12:45:03.415Z,77.95
2023-01-22T12:46:03.395Z,78.17
2023-01-22T12:47:03.369Z,78.13
2023-01-22T12:48:04.370Z,79.47
2023-01-22T12:49:03.372Z,76.82
2023-01-22T12:50:04.840Z,77.09
2023-01-22T12:51:04.338Z,76.43
2023-01-22T12:52:03.287Z,78.02